sensor_id;sensor_type;location;lat;lon;timestamp;pressure;altitude;pressure_sealevel;temperature;humidity
4449;BME280;2237;51.870;6.160;2023-02-22T00:01:31;101433.38;;;10.22;100.00
4449;BME280;2237;51.870;6.160;2023-02-22T00:04:03;101424.78;;;10.15;100.00
4449;BME280;2237;51.870;6.160;2023-02-22T00:06:31;101434.34;;;10.15;100.00
4449;BME280;2237;51.870;6.160;2023-02-22T00:08:58;101430.00;;;10.14;100.00
4449;BME280;2237;51.870;6.160;2023-02-22T00:11:25;101431.72;;;10.13;100.00
4449;BME280;2237;51.870;6.160;2023-02-22T00:13:52;101431.69;;;10.16;100.00
4449;BME280;2237;51.870;6.160;2023-02-22T00:16:23;101423.91;;;10.12;100.00
4449;BME280;2237;51.870;6.160;2023-02-22T00:18:50;101423.91;;;10.12;100.00
4449;BME280;2237;51.870;6.160;2023-02-22T00:21:18;101423.09;;;10.08;100.00
4449;BME280;2237;51.870;6.160;2023-02-22T00:23:45;101427.44;;;10.05;100.00
4449;BME280;2237;51.870;6.160;2023-02-22T00:26:15;101430.16;;;9.96;100.00
4449;BME280;2237;51.870;6.160;2023-02-22T00:28:48;101430.16;;;9.93;100.00
4449;BME280;2237;51.870;6.160;2023-02-22T00:31:15;101428.47;;;9.92;100.00
4449;BME280;2237;51.870;6.160;2023-02-22T00:33:42;101424.00;;;10.03;100.00
4449;BME280;2237;51.870;6.160;2023-02-22T00:36:10;101419.69;;;10.03;100.00
4449;BME280;2237;51.870;6.160;2023-02-22T00:38:38;101435.19;;;10.15;100.00
4449;BME280;2237;51.870;6.160;2023-02-22T00:41:05;101437.69;;;10.23;100.00
4449;BME280;2237;51.870;6.160;2023-02-22T00:43:32;101435.00;;;10.31;100.00
4449;BME280;2237;51.870;6.160;2023-02-22T00:45:59;101432.38;;;10.35;100.00
4449;BME280;2237;51.870;6.160;2023-02-22T00:48:26;101425.38;;;10.37;100.00
4449;BME280;2237;51.870;6.160;2023-02-22T00:50:53;101428.84;;;10.36;100.00
4449;BME280;2237;51.870;6.160;2023-02-22T00:53:24;101420.25;;;10.33;100.00
4449;BME280;2237;51.870;6.160;2023-02-22T00:55:52;101422.84;;;10.31;100.00
4449;BME280;2237;51.870;6.160;2023-02-22T00:58:19;101423.78;;;10.26;100.00
4449;BME280;2237;51.870;6.160;2023-02-22T01:00:46;101426.53;;;10.15;100.00
4449;BME280;2237;51.870;6.160;2023-02-22T01:03:15;101418.94;;;9.91;100.00
4449;BME280;2237;51.870;6.160;2023-02-22T01:05:42;101407.81;;;9.77;100.00
4449;BME280;2237;51.870;6.160;2023-02-22T01:08:10;101414.69;;;9.84;100.00
4449;BME280;2237;51.870;6.160;2023-02-22T01:10:38;101416.31;;;9.94;100.00
4449;BME280;2237;51.870;6.160;2023-02-22T01:13:06;101408.38;;;10.06;100.00
4449;BME280;2237;51.870;6.160;2023-02-22T01:15:35;101409.25;;;10.06;100.00
4449;BME280;2237;51.870;6.160;2023-02-22T01:18:03;101417.88;;;10.08;100.00
4449;BME280;2237;51.870;6.160;2023-02-22T01:20:31;101411.81;;;10.08;100.00
4449;BME280;2237;51.870;6.160;2023-02-22T01:22:59;101404.94;;;10.04;100.00
4449;BME280;2237;51.870;6.160;2023-02-22T01:25:28;101404.06;;;10.03;100.00
4449;BME280;2237;51.870;6.160;2023-02-22T01:27:58;101399.78;;;9.98;100.00
4449;BME280;2237;51.870;6.160;2023-02-22T01:30:29;101400.63;;;9.98;100.00
4449;BME280;2237;51.870;6.160;2023-02-22T01:32:56;101395.41;;;10.00;100.00
4449;BME280;2237;51.870;6.160;2023-02-22T01:35:26;101389.31;;;10.02;100.00
4449;BME280;2237;51.870;6.160;2023-02-22T01:37:54;101391.94;;;10.01;100.00
4449;BME280;2237;51.870;6.160;2023-02-22T01:40:24;101391.91;;;10.02;100.00
4449;BME280;2237;51.870;6.160;2023-02-22T01:42:52;101385.09;;;9.95;100.00
4449;BME280;2237;51.870;6.160;2023-02-22T01:48:23;101387.78;;;9.85;100.00
4449;BME280;2237;51.870;6.160;2023-02-22T01:53:26;101373.13;;;9.78;100.00
4449;BME280;2237;51.870;6.160;2023-02-22T01:55:55;101380.09;;;9.74;100.00
4449;BME280;2237;51.870;6.160;2023-02-22T01:58:25;101367.97;;;9.72;100.00
4449;BME280;2237;51.870;6.160;2023-02-22T02:00:53;101372.31;;;9.70;100.00
4449;BME280;2237;51.870;6.160;2023-02-22T02:03:24;101364.47;;;9.73;100.00
4449;BME280;2237;51.870;6.160;2023-02-22T02:05:55;101358.44;;;9.72;100.00
4449;BME280;2237;51.870;6.160;2023-02-22T02:09:02;101368.78;;;9.77;100.00
4449;BME280;2237;51.870;6.160;2023-02-22T02:11:30;101360.06;;;9.82;100.00
4449;BME280;2237;51.870;6.160;2023-02-22T02:13:58;101359.22;;;9.80;100.00
4449;BME280;2237;51.870;6.160;2023-02-22T02:16:37;101364.47;;;9.77;100.00
4449;BME280;2237;51.870;6.160;2023-02-22T02:19:14;101355.84;;;9.72;100.00
4449;BME280;2237;51.870;6.160;2023-02-22T02:22:09;101354.09;;;9.74;100.00
4449;BME280;2237;51.870;6.160;2023-02-22T02:27:46;101353.19;;;9.77;100.00
4449;BME280;2237;51.870;6.160;2023-02-22T02:33:17;101347.09;;;9.79;100.00
4449;BME280;2237;51.870;6.160;2023-02-22T02:35:52;101348.81;;;9.80;100.00
4449;BME280;2237;51.870;6.160;2023-02-22T02:38:53;101334.94;;;9.78;100.00
4449;BME280;2237;51.870;6.160;2023-02-22T02:41:29;101332.38;;;9.77;100.00
4449;BME280;2237;51.870;6.160;2023-02-22T02:49:04;101322.91;;;9.70;100.00
4449;BME280;2237;51.870;6.160;2023-02-22T02:51:39;101314.31;;;9.66;100.00
4449;BME280;2237;51.870;6.160;2023-02-22T02:54:07;101308.16;;;9.72;100.00
4449;BME280;2237;51.870;6.160;2023-02-22T02:56:35;101302.94;;;9.75;100.00
4449;BME280;2237;51.870;6.160;2023-02-22T02:59:01;101308.13;;;9.75;100.00
4449;BME280;2237;51.870;6.160;2023-02-22T03:04:37;101301.25;;;9.68;100.00
4449;BME280;2237;51.870;6.160;2023-02-22T03:09:54;101300.44;;;9.65;100.00
4449;BME280;2237;51.870;6.160;2023-02-22T03:15:43;101296.16;;;9.60;100.00
4449;BME280;2237;51.870;6.160;2023-02-22T03:18:17;101285.72;;;9.61;100.00
4449;BME280;2237;51.870;6.160;2023-02-22T03:20:58;101295.25;;;9.61;100.00
4449;BME280;2237;51.870;6.160;2023-02-22T03:26:25;101292.06;;;9.35;100.00
4449;BME280;2237;51.870;6.160;2023-02-22T03:28:55;101292.06;;;9.35;100.00
4449;BME280;2237;51.870;6.160;2023-02-22T03:31:24;101294.59;;;9.42;100.00
4449;BME280;2237;51.870;6.160;2023-02-22T03:33:54;101295.56;;;9.32;100.00
4449;BME280;2237;51.870;6.160;2023-02-22T03:36:32;101293.88;;;9.27;100.00
4449;BME280;2237;51.870;6.160;2023-02-22T03:39:08;101288.72;;;9.25;100.00
4449;BME280;2237;51.870;6.160;2023-02-22T03:41:37;101286.19;;;9.16;100.00
4449;BME280;2237;51.870;6.160;2023-02-22T03:44:11;101284.53;;;9.11;100.00
4449;BME280;2237;51.870;6.160;2023-02-22T03:46:41;101287.16;;;9.06;100.00
4449;BME280;2237;51.870;6.160;2023-02-22T03:49:22;101285.38;;;9.09;100.00
4449;BME280;2237;51.870;6.160;2023-02-22T03:51:50;101286.34;;;9.02;100.00
4449;BME280;2237;51.870;6.160;2023-02-22T03:54:17;101285.56;;;8.88;100.00
4449;BME280;2237;51.870;6.160;2023-02-22T03:56:55;101285.50;;;8.99;100.00
4449;BME280;2237;51.870;6.160;2023-02-22T03:59:23;101283.66;;;9.08;100.00
4449;BME280;2237;51.870;6.160;2023-02-22T04:01:53;101280.13;;;9.16;100.00
4449;BME280;2237;51.870;6.160;2023-02-22T04:04:20;101281.03;;;9.13;100.00
4449;BME280;2237;51.870;6.160;2023-02-22T04:06:46;101272.44;;;9.05;100.00
4449;BME280;2237;51.870;6.160;2023-02-22T04:09:14;101287.97;;;9.13;100.00
4449;BME280;2237;51.870;6.160;2023-02-22T04:11:40;101274.88;;;9.20;100.00
4449;BME280;2237;51.870;6.160;2023-02-22T04:14:07;101275.78;;;9.18;100.00
4449;BME280;2237;51.870;6.160;2023-02-22T04:16:33;101273.16;;;9.21;100.00
4449;BME280;2237;51.870;6.160;2023-02-22T04:19:00;101279.22;;;9.21;100.00
4449;BME280;2237;51.870;6.160;2023-02-22T04:21:26;101273.28;;;9.07;100.00
4449;BME280;2237;51.870;6.160;2023-02-22T04:23:53;101265.53;;;9.04;100.00
4449;BME280;2237;51.870;6.160;2023-02-22T04:26:20;101267.25;;;9.05;100.00
4449;BME280;2237;51.870;6.160;2023-02-22T04:28:46;101262.94;;;9.01;100.00
4449;BME280;2237;51.870;6.160;2023-02-22T04:31:12;101260.38;;;8.98;100.00
4449;BME280;2237;51.870;6.160;2023-02-22T04:33:39;101256.06;;;8.94;100.00
4449;BME280;2237;51.870;6.160;2023-02-22T04:36:05;101244.09;;;8.81;100.00
4449;BME280;2237;51.870;6.160;2023-02-22T04:38:32;101239.72;;;8.83;100.00
4449;BME280;2237;51.870;6.160;2023-02-22T04:40:59;101250.06;;;8.89;100.00
4449;BME280;2237;51.870;6.160;2023-02-22T04:43:25;101251.75;;;8.96;100.00
4449;BME280;2237;51.870;6.160;2023-02-22T04:45:51;101244.88;;;8.90;100.00
4449;BME280;2237;51.870;6.160;2023-02-22T04:48:17;101244.75;;;9.01;100.00
4449;BME280;2237;51.870;6.160;2023-02-22T04:50:44;101242.97;;;9.07;100.00
4449;BME280;2237;51.870;6.160;2023-02-22T04:53:10;101238.63;;;9.09;100.00
4449;BME280;2237;51.870;6.160;2023-02-22T04:55:37;101241.25;;;9.08;100.00
4449;BME280;2237;51.870;6.160;2023-02-22T04:58:03;101237.78;;;9.07;100.00
4449;BME280;2237;51.870;6.160;2023-02-22T05:00:29;101234.31;;;9.07;100.00
4449;BME280;2237;51.870;6.160;2023-02-22T05:02:56;101231.66;;;9.12;100.00
4449;BME280;2237;51.870;6.160;2023-02-22T05:05:22;101232.50;;;9.15;100.00
4449;BME280;2237;51.870;6.160;2023-02-22T05:07:49;101230.81;;;9.09;100.00
4449;BME280;2237;51.870;6.160;2023-02-22T05:10:16;101230.09;;;8.95;100.00
4449;BME280;2237;51.870;6.160;2023-02-22T05:12:42;101223.34;;;8.79;100.00
4449;BME280;2237;51.870;6.160;2023-02-22T05:15:10;101224.16;;;8.83;100.00
4449;BME280;2237;51.870;6.160;2023-02-22T05:17:36;101220.66;;;8.85;100.00
4449;BME280;2237;51.870;6.160;2023-02-22T05:20:03;101217.16;;;8.91;100.00
4449;BME280;2237;51.870;6.160;2023-02-22T05:22:30;101218.84;;;8.95;100.00
4449;BME280;2237;51.870;6.160;2023-02-22T05:24:56;101215.28;;;9.03;100.00
4449;BME280;2237;51.870;6.160;2023-02-22T05:27:22;101217.06;;;9.00;100.00
4449;BME280;2237;51.870;6.160;2023-02-22T05:29:49;101218.75;;;9.04;100.00
4449;BME280;2237;51.870;6.160;2023-02-22T05:32:15;101210.94;;;9.05;100.00
4449;BME280;2237;51.870;6.160;2023-02-22T05:34:42;101205.78;;;9.04;100.00
4449;BME280;2237;51.870;6.160;2023-02-22T05:37:08;101204.03;;;9.04;100.00
4449;BME280;2237;51.870;6.160;2023-02-22T05:39:34;101199.75;;;9.02;100.00
4449;BME280;2237;51.870;6.160;2023-02-22T05:42:00;101191.19;;;8.89;100.00
4449;BME280;2237;51.870;6.160;2023-02-22T05:44:27;101189.59;;;8.75;100.00
4449;BME280;2237;51.870;6.160;2023-02-22T05:46:53;101188.75;;;8.73;100.00
4449;BME280;2237;51.870;6.160;2023-02-22T05:49:19;101179.09;;;8.85;100.00
4449;BME280;2237;51.870;6.160;2023-02-22T05:51:46;101179.97;;;8.87;100.00
4449;BME280;2237;51.870;6.160;2023-02-22T05:54:12;101180.88;;;8.82;100.00
4449;BME280;2237;51.870;6.160;2023-02-22T05:56:38;101180.91;;;8.79;100.00
4449;BME280;2237;51.870;6.160;2023-02-22T05:59:05;101173.06;;;8.85;100.00
4449;BME280;2237;51.870;6.160;2023-02-22T06:01:31;101178.19;;;8.92;100.00
4449;BME280;2237;51.870;6.160;2023-02-22T06:03:57;101181.66;;;8.93;100.00
4449;BME280;2237;51.870;6.160;2023-02-22T06:06:24;101185.03;;;8.98;100.00
4449;BME280;2237;51.870;6.160;2023-02-22T06:08:50;101179.13;;;8.84;100.00
4449;BME280;2237;51.870;6.160;2023-02-22T06:11:16;101182.59;;;8.83;100.00
4449;BME280;2237;51.870;6.160;2023-02-22T06:13:49;101176.53;;;8.82;100.00
4449;BME280;2237;51.870;6.160;2023-02-22T06:16:15;101183.50;;;8.82;100.00
4449;BME280;2237;51.870;6.160;2023-02-22T06:18:42;101175.75;;;8.76;100.00
4449;BME280;2237;51.870;6.160;2023-02-22T06:21:08;101176.63;;;8.75;100.00
4449;BME280;2237;51.870;6.160;2023-02-22T06:23:34;101181.78;;;8.78;100.00
4449;BME280;2237;51.870;6.160;2023-02-22T06:26:01;101175.78;;;8.71;100.00
4449;BME280;2237;51.870;6.160;2023-02-22T06:28:27;101189.59;;;8.75;100.00
4449;BME280;2237;51.870;6.160;2023-02-22T06:30:53;101185.25;;;8.78;100.00
4449;BME280;2237;51.870;6.160;2023-02-22T06:33:20;101191.34;;;8.76;100.00
4449;BME280;2237;51.870;6.160;2023-02-22T06:35:46;101186.91;;;8.84;100.00
4449;BME280;2237;51.870;6.160;2023-02-22T06:38:20;101190.47;;;8.74;100.00
4449;BME280;2237;51.870;6.160;2023-02-22T06:40:47;101186.22;;;8.67;100.00
4449;BME280;2237;51.870;6.160;2023-02-22T06:43:13;101188.03;;;8.59;100.00
4449;BME280;2237;51.870;6.160;2023-02-22T06:45:39;101186.25;;;8.64;100.00
4449;BME280;2237;51.870;6.160;2023-02-22T06:48:06;101183.66;;;8.64;100.00
4449;BME280;2237;51.870;6.160;2023-02-22T06:50:32;101183.56;;;8.73;100.00
4449;BME280;2237;51.870;6.160;2023-02-22T06:53:01;101182.66;;;8.77;100.00
4449;BME280;2237;51.870;6.160;2023-02-22T06:55:29;101178.28;;;8.82;100.00
4449;BME280;2237;51.870;6.160;2023-02-22T06:57:57;101173.03;;;8.88;100.00
4449;BME280;2237;51.870;6.160;2023-02-22T07:00:26;101178.22;;;8.91;100.00
4449;BME280;2237;51.870;6.160;2023-02-22T07:02:53;101170.44;;;8.86;100.00
4449;BME280;2237;51.870;6.160;2023-02-22T07:05:21;101171.44;;;8.76;100.00
4449;BME280;2237;51.870;6.160;2023-02-22T07:07:50;101163.63;;;8.76;100.00
4449;BME280;2237;51.870;6.160;2023-02-22T07:10:26;101161.03;;;8.76;100.00
4449;BME280;2237;51.870;6.160;2023-02-22T07:12:53;101155.84;;;8.76;100.00
4449;BME280;2237;51.870;6.160;2023-02-22T07:15:22;101152.31;;;8.80;100.00
4449;BME280;2237;51.870;6.160;2023-02-22T07:17:49;101147.03;;;8.91;100.00
4449;BME280;2237;51.870;6.160;2023-02-22T07:20:16;101147.97;;;8.84;100.00
4449;BME280;2237;51.870;6.160;2023-02-22T07:22:43;101152.38;;;8.76;100.00
4449;BME280;2237;51.870;6.160;2023-02-22T07:25:09;101156.53;;;8.92;100.00
4449;BME280;2237;51.870;6.160;2023-02-22T07:27:38;101155.59;;;8.97;100.00
4449;BME280;2237;51.870;6.160;2023-02-22T07:30:06;101155.53;;;9.03;100.00
4449;BME280;2237;51.870;6.160;2023-02-22T07:32:32;101151.09;;;9.15;100.00
4449;BME280;2237;51.870;6.160;2023-02-22T07:34:59;101155.41;;;9.16;100.00
4449;BME280;2237;51.870;6.160;2023-02-22T07:37:27;101161.47;;;9.16;100.00
4449;BME280;2237;51.870;6.160;2023-02-22T07:39:55;101164.84;;;9.24;100.00
4449;BME280;2237;51.870;6.160;2023-02-22T07:42:21;101160.44;;;9.29;100.00
4449;BME280;2237;51.870;6.160;2023-02-22T07:44:47;101153.47;;;9.33;100.00
4449;BME280;2237;51.870;6.160;2023-02-22T07:47:14;101164.72;;;9.35;100.00
4449;BME280;2237;51.870;6.160;2023-02-22T07:49:40;101163.84;;;9.36;100.00
4449;BME280;2237;51.870;6.160;2023-02-22T07:52:06;101166.38;;;9.40;100.00
4449;BME280;2237;51.870;6.160;2023-02-22T07:54:32;101164.59;;;9.45;100.00
4449;BME280;2237;51.870;6.160;2023-02-22T07:56:59;101159.31;;;9.50;100.00
4449;BME280;2237;51.870;6.160;2023-02-22T07:59:25;101162.72;;;9.56;100.00
4449;BME280;2237;51.870;6.160;2023-02-22T08:01:51;101160.84;;;9.68;100.00
4449;BME280;2237;51.870;6.160;2023-02-22T08:04:18;101159.97;;;9.69;100.00
4449;BME280;2237;51.870;6.160;2023-02-22T08:06:44;101155.50;;;9.77;100.00
4449;BME280;2237;51.870;6.160;2023-02-22T08:09:11;101152.00;;;9.81;100.00
4449;BME280;2237;51.870;6.160;2023-02-22T08:11:37;101163.06;;;9.93;100.00
4449;BME280;2237;51.870;6.160;2023-02-22T08:14:04;101162.38;;;9.84;100.00
4449;BME280;2237;51.870;6.160;2023-02-22T08:16:30;101156.16;;;9.92;100.00
4449;BME280;2237;51.870;6.160;2023-02-22T08:18:56;101161.25;;;9.98;100.00
4449;BME280;2237;51.870;6.160;2023-02-22T08:21:23;101160.28;;;10.07;100.00
4449;BME280;2237;51.870;6.160;2023-02-22T08:23:50;101163.66;;;10.15;100.00
4449;BME280;2237;51.870;6.160;2023-02-22T08:26:19;101161.94;;;10.14;100.00
4449;BME280;2237;51.870;6.160;2023-02-22T08:28:47;101154.91;;;10.19;100.00
4449;BME280;2237;51.870;6.160;2023-02-22T08:31:13;101150.66;;;10.13;100.00
4449;BME280;2237;51.870;6.160;2023-02-22T08:33:40;101153.25;;;10.15;100.00
4449;BME280;2237;51.870;6.160;2023-02-22T08:36:07;101143.78;;;10.09;100.00
4449;BME280;2237;51.870;6.160;2023-02-22T08:38:34;101141.03;;;10.20;100.00
4449;BME280;2237;51.870;6.160;2023-02-22T08:41:00;101144.25;;;10.34;100.00
4449;BME280;2237;51.870;6.160;2023-02-22T08:43:27;101149.50;;;10.31;100.00
4449;BME280;2237;51.870;6.160;2023-02-22T08:45:53;101146.00;;;10.35;100.00
4449;BME280;2237;51.870;6.160;2023-02-22T08:48:23;101150.38;;;10.32;100.00
4449;BME280;2237;51.870;6.160;2023-02-22T08:50:49;101142.66;;;10.27;100.00
4449;BME280;2237;51.870;6.160;2023-02-22T08:53:16;101144.44;;;10.22;100.00
4449;BME280;2237;51.870;6.160;2023-02-22T08:55:43;101156.44;;;10.32;100.00
4449;BME280;2237;51.870;6.160;2023-02-22T08:58:10;101151.91;;;10.43;100.00
4449;BME280;2237;51.870;6.160;2023-02-22T09:00:38;101150.91;;;10.52;100.00
4449;BME280;2237;51.870;6.160;2023-02-22T09:03:07;101156.78;;;10.63;100.00
4449;BME280;2237;51.870;6.160;2023-02-22T09:05:34;101147.19;;;10.66;100.00
4449;BME280;2237;51.870;6.160;2023-02-22T09:08:01;101151.53;;;10.67;100.00
4449;BME280;2237;51.870;6.160;2023-02-22T09:10:30;101159.13;;;10.80;100.00
4449;BME280;2237;51.870;6.160;2023-02-22T09:12:57;101143.56;;;10.75;100.00
4449;BME280;2237;51.870;6.160;2023-02-22T09:15:26;101154.63;;;10.86;100.00
4449;BME280;2237;51.870;6.160;2023-02-22T09:17:53;101146.53;;;11.03;100.00
4449;BME280;2237;51.870;6.160;2023-02-22T09:20:21;101142.81;;;11.14;100.00
4449;BME280;2237;51.870;6.160;2023-02-22T09:22:49;101143.59;;;11.19;100.00
4449;BME280;2237;51.870;6.160;2023-02-22T09:25:16;101133.97;;;11.23;100.00
4449;BME280;2237;51.870;6.160;2023-02-22T09:27:45;101139.38;;;11.12;100.00
4449;BME280;2237;51.870;6.160;2023-02-22T09:32:45;101123.94;;;11.02;100.00
4449;BME280;2237;51.870;6.160;2023-02-22T09:35:12;101122.97;;;11.07;100.00
4449;BME280;2237;51.870;6.160;2023-02-22T09:37:38;101110.34;;;11.29;100.00
4449;BME280;2237;51.870;6.160;2023-02-22T09:40:05;101110.09;;;11.41;100.00
4449;BME280;2237;51.870;6.160;2023-02-22T09:42:41;101105.91;;;11.34;100.00
4449;BME280;2237;51.870;6.160;2023-02-22T09:45:21;101111.63;;;11.10;100.00
4449;BME280;2237;51.870;6.160;2023-02-22T09:48:00;101114.06;;;11.17;100.00
4449;BME280;2237;51.870;6.160;2023-02-22T09:50:50;101107.41;;;11.46;100.00
4449;BME280;2237;51.870;6.160;2023-02-22T09:55:49;101098.66;;;11.47;100.00
4449;BME280;2237;51.870;6.160;2023-02-22T09:58:24;101104.28;;;11.68;100.00
4449;BME280;2237;51.870;6.160;2023-02-22T10:00:57;101103.44;;;11.69;100.00
4449;BME280;2237;51.870;6.160;2023-02-22T10:03:31;101101.16;;;11.53;100.00
4449;BME280;2237;51.870;6.160;2023-02-22T10:06:03;101091.50;;;11.56;100.00
4449;BME280;2237;51.870;6.160;2023-02-22T10:08:31;101084.81;;;11.46;100.00
4449;BME280;2237;51.870;6.160;2023-02-22T10:11:15;101099.03;;;11.71;100.00
4449;BME280;2237;51.870;6.160;2023-02-22T10:16:51;101085.78;;;11.80;100.00
4449;BME280;2237;51.870;6.160;2023-02-22T10:25:13;101081.53;;;12.12;100.00
4449;BME280;2237;51.870;6.160;2023-02-22T10:27:57;101076.19;;;12.18;100.00
4449;BME280;2237;51.870;6.160;2023-02-22T10:33:20;101085.47;;;12.28;100.00
4449;BME280;2237;51.870;6.160;2023-02-22T10:35:47;101084.78;;;12.21;100.00
4449;BME280;2237;51.870;6.160;2023-02-22T10:38:33;101080.09;;;12.35;100.00
4449;BME280;2237;51.870;6.160;2023-02-22T10:43:36;101082.00;;;12.61;100.00
4449;BME280;2237;51.870;6.160;2023-02-22T10:46:06;101087.31;;;12.58;100.00
4449;BME280;2237;51.870;6.160;2023-02-22T10:48:36;101072.31;;;12.32;100.00
4449;BME280;2237;51.870;6.160;2023-02-22T10:51:05;101074.56;;;12.48;100.00
4449;BME280;2237;51.870;6.160;2023-02-22T10:53:34;101069.47;;;12.74;100.00
4449;BME280;2237;51.870;6.160;2023-02-22T10:56:21;101058.38;;;12.96;100.00
4449;BME280;2237;51.870;6.160;2023-02-22T11:01:34;101059.38;;;13.23;100.00
4449;BME280;2237;51.870;6.160;2023-02-22T11:04:20;101057.06;;;13.42;100.00
4449;BME280;2237;51.870;6.160;2023-02-22T11:06:49;101054.34;;;13.45;100.00
4449;BME280;2237;51.870;6.160;2023-02-22T11:09:45;101051.75;;;13.45;100.00
4449;BME280;2237;51.870;6.160;2023-02-22T11:12:39;101045.09;;;13.63;100.00
4449;BME280;2237;51.870;6.160;2023-02-22T11:17:42;101031.22;;;13.59;100.00
4449;BME280;2237;51.870;6.160;2023-02-22T11:20:19;101029.28;;;13.66;100.00
4449;BME280;2237;51.870;6.160;2023-02-22T11:22:52;101033.22;;;13.79;100.00
4449;BME280;2237;51.870;6.160;2023-02-22T11:25:34;101031.81;;;13.95;100.00
4449;BME280;2237;51.870;6.160;2023-02-22T11:28:12;101030.06;;;13.95;100.00
4449;BME280;2237;51.870;6.160;2023-02-22T11:30:50;101022.81;;;14.03;100.00
4449;BME280;2237;51.870;6.160;2023-02-22T11:33:20;101027.16;;;14.04;100.00
4449;BME280;2237;51.870;6.160;2023-02-22T11:35:58;101026.38;;;14.01;100.00
4449;BME280;2237;51.870;6.160;2023-02-22T11:38:26;101014.66;;;14.12;100.00
4449;BME280;2237;51.870;6.160;2023-02-22T11:41:13;101010.78;;;14.23;100.00
4449;BME280;2237;51.870;6.160;2023-02-22T11:43:45;101015.72;;;14.32;100.00
4449;BME280;2237;51.870;6.160;2023-02-22T11:46:16;101015.66;;;14.35;100.00
4449;BME280;2237;51.870;6.160;2023-02-22T11:51:28;101010.31;;;14.62;100.00
4449;BME280;2237;51.870;6.160;2023-02-22T11:56:38;101016.25;;;14.91;100.00
4449;BME280;2237;51.870;6.160;2023-02-22T11:59:35;101013.72;;;15.11;100.00
4449;BME280;2237;51.870;6.160;2023-02-22T12:02:39;101009.53;;;15.28;100.00
4449;BME280;2237;51.870;6.160;2023-02-22T12:05:29;101003.19;;;15.57;100.00
4449;BME280;2237;51.870;6.160;2023-02-22T12:13:47;101004.91;;;16.20;100.00
4449;BME280;2237;51.870;6.160;2023-02-22T12:16:27;100999.22;;;16.31;100.00
4449;BME280;2237;51.870;6.160;2023-02-22T12:19:12;101001.84;;;16.51;100.00
4449;BME280;2237;51.870;6.160;2023-02-22T12:21:42;101014.03;;;16.52;96.88
4449;BME280;2237;51.870;6.160;2023-02-22T12:24:16;101002.13;;;16.65;95.23
4449;BME280;2237;51.870;6.160;2023-02-22T12:26:50;100991.25;;;16.73;93.07
4449;BME280;2237;51.870;6.160;2023-02-22T12:34:36;100998.22;;;16.74;83.66
4449;BME280;2237;51.870;6.160;2023-02-22T12:45:41;100972.75;;;17.30;78.76
4449;BME280;2237;51.870;6.160;2023-02-22T12:48:37;100977.38;;;17.25;77.47
4449;BME280;2237;51.870;6.160;2023-02-22T12:53:55;100970.97;;;17.49;74.60
4449;BME280;2237;51.870;6.160;2023-02-22T12:56:36;100970.06;;;17.68;74.04
4449;BME280;2237;51.870;6.160;2023-02-22T13:00:00;100977.22;;;17.47;66.89
4449;BME280;2237;51.870;6.160;2023-02-22T13:02:14;100970.25;;;17.27;67.31
4449;BME280;2237;51.870;6.160;2023-02-22T13:04:43;100969.16;;;16.95;71.01
4449;BME280;2237;51.870;6.160;2023-02-22T13:07:41;100961.91;;;17.01;71.23
4449;BME280;2237;51.870;6.160;2023-02-22T13:13:14;100959.47;;;16.96;71.39
4449;BME280;2237;51.870;6.160;2023-02-22T13:15:52;100954.34;;;16.93;71.92
4449;BME280;2237;51.870;6.160;2023-02-22T13:18:27;100955.22;;;16.93;73.16
4449;BME280;2237;51.870;6.160;2023-02-22T13:21:01;100947.19;;;16.97;73.69
4449;BME280;2237;51.870;6.160;2023-02-22T13:24:07;100950.38;;;17.03;73.63
4449;BME280;2237;51.870;6.160;2023-02-22T13:26:46;100947.69;;;16.86;75.10
4449;BME280;2237;51.870;6.160;2023-02-22T13:29:19;100954.66;;;16.68;77.93
4449;BME280;2237;51.870;6.160;2023-02-22T13:37:38;100963.66;;;16.43;82.70
4449;BME280;2237;51.870;6.160;2023-02-22T13:43:17;100962.09;;;15.98;85.44
4449;BME280;2237;51.870;6.160;2023-02-22T13:51:48;100969.59;;;16.07;87.43
4449;BME280;2237;51.870;6.160;2023-02-22T13:54:26;100965.59;;;16.19;88.03
4449;BME280;2237;51.870;6.160;2023-02-22T13:56:56;100972.59;;;16.38;88.79
4449;BME280;2237;51.870;6.160;2023-02-22T13:59:27;100968.34;;;16.36;88.20
4449;BME280;2237;51.870;6.160;2023-02-22T14:01:54;100968.00;;;16.23;88.52
4449;BME280;2237;51.870;6.160;2023-02-22T14:09:42;100959.19;;;15.84;88.47
4449;BME280;2237;51.870;6.160;2023-02-22T14:18:03;100951.53;;;15.58;91.87
4449;BME280;2237;51.870;6.160;2023-02-22T14:20:39;100950.59;;;15.59;92.25
4449;BME280;2237;51.870;6.160;2023-02-22T14:25:50;100947.56;;;15.48;93.75
4449;BME280;2237;51.870;6.160;2023-02-22T14:28:37;100945.88;;;15.45;92.78
4449;BME280;2237;51.870;6.160;2023-02-22T14:31:25;100947.84;;;15.18;92.62
4449;BME280;2237;51.870;6.160;2023-02-22T14:34:05;100944.47;;;15.15;95.25
4449;BME280;2237;51.870;6.160;2023-02-22T14:36:57;100938.19;;;15.19;97.30
4449;BME280;2237;51.870;6.160;2023-02-22T14:45:00;100943.03;;;15.08;98.83
4449;BME280;2237;51.870;6.160;2023-02-22T14:47:49;100945.56;;;15.09;99.78
4449;BME280;2237;51.870;6.160;2023-02-22T14:53:00;100943.56;;;14.94;100.00
4449;BME280;2237;51.870;6.160;2023-02-22T14:55:30;100944.59;;;14.90;100.00
4449;BME280;2237;51.870;6.160;2023-02-22T14:58:04;100941.72;;;14.96;100.00
4449;BME280;2237;51.870;6.160;2023-02-22T15:00:42;100940.75;;;14.99;100.00
4449;BME280;2237;51.870;6.160;2023-02-22T15:03:32;100951.97;;;15.02;100.00
4449;BME280;2237;51.870;6.160;2023-02-22T15:06:11;100953.81;;;15.00;100.00
4449;BME280;2237;51.870;6.160;2023-02-22T15:08:41;100959.72;;;15.05;100.00
4449;BME280;2237;51.870;6.160;2023-02-22T15:11:28;100953.81;;;15.00;100.00
4449;BME280;2237;51.870;6.160;2023-02-22T15:13:59;100961.91;;;14.94;100.00
4449;BME280;2237;51.870;6.160;2023-02-22T15:16:28;100965.63;;;14.89;100.00
4449;BME280;2237;51.870;6.160;2023-02-22T15:18:58;100963.25;;;14.83;100.00
4449;BME280;2237;51.870;6.160;2023-02-22T15:21:26;100965.25;;;14.75;100.00
4449;BME280;2237;51.870;6.160;2023-02-22T15:24:01;100969.94;;;14.66;100.00
4449;BME280;2237;51.870;6.160;2023-02-22T15:26:36;100973.72;;;14.59;100.00
4449;BME280;2237;51.870;6.160;2023-02-22T15:29:17;100973.34;;;14.45;100.00